sensor_id;sensor_type;location;lat;lon;timestamp;pressure;altitude;pressure_sealevel;temperature;humidity
23303;BME280;11820;48.738;9.092;2023-02-22T00:00:35;96192.59;;;8.77;nan
23303;BME280;11820;48.738;9.092;2023-02-22T00:05:44;96188.94;;;9.07;nan
23303;BME280;11820;48.738;9.092;2023-02-22T00:08:12;96190.53;;;8.87;nan
23303;BME280;11820;48.738;9.092;2023-02-22T00:10:38;96192.44;;;8.43;nan
23303;BME280;11820;48.738;9.092;2023-02-22T00:13:06;96195.97;;;8.56;nan
23303;BME280;11820;48.738;9.092;2023-02-22T00:15:32;96192.19;;;8.73;nan
23303;BME280;11820;48.738;9.092;2023-02-22T00:17:58;96188.19;;;8.71;nan
23303;BME280;11820;48.738;9.092;2023-02-22T00:20:24;96182.59;;;8.46;nan
23303;BME280;11820;48.738;9.092;2023-02-22T00:22:50;96185.38;;;8.66;nan
23303;BME280;11820;48.738;9.092;2023-02-22T00:25:21;96179.22;;;9.09;nan
23303;BME280;11820;48.738;9.092;2023-02-22T00:27:48;96176.25;;;9.33;nan
23303;BME280;11820;48.738;9.092;2023-02-22T00:30:20;96177.63;;;9.35;nan
23303;BME280;11820;48.738;9.092;2023-02-22T00:32:46;96171.72;;;8.93;nan
23303;BME280;11820;48.738;9.092;2023-02-22T00:35:16;96174.69;;;8.69;nan
23303;BME280;11820;48.738;9.092;2023-02-22T00:37:42;96169.03;;;8.59;nan
23303;BME280;11820;48.738;9.092;2023-02-22T00:40:09;96173.81;;;8.62;nan
23303;BME280;11820;48.738;9.092;2023-02-22T00:42:35;96172.81;;;8.42;nan
23303;BME280;11820;48.738;9.092;2023-02-22T00:45:01;96170.81;;;8.23;nan
23303;BME280;11820;48.738;9.092;2023-02-22T00:47:27;96169.78;;;8.17;nan
23303;BME280;11820;48.738;9.092;2023-02-22T00:49:54;96167.09;;;8.25;nan
23303;BME280;11820;48.738;9.092;2023-02-22T00:52:19;96165.72;;;8.44;nan
23303;BME280;11820;48.738;9.092;2023-02-22T00:54:45;96169.66;;;8.25;nan
23303;BME280;11820;48.738;9.092;2023-02-22T00:57:10;96163.16;;;8.29;nan
23303;BME280;11820;48.738;9.092;2023-02-22T00:59:36;96164.31;;;8.27;nan
23303;BME280;11820;48.738;9.092;2023-02-22T01:02:01;96157.03;;;8.30;nan
23303;BME280;11820;48.738;9.092;2023-02-22T01:04:27;96162.69;;;8.19;nan
23303;BME280;11820;48.738;9.092;2023-02-22T01:06:52;96164.47;;;8.40;nan
23303;BME280;11820;48.738;9.092;2023-02-22T01:09:18;96152.22;;;8.42;nan
23303;BME280;11820;48.738;9.092;2023-02-22T01:11:43;96150.63;;;8.41;nan
23303;BME280;11820;48.738;9.092;2023-02-22T01:14:09;96148.56;;;8.36;nan
23303;BME280;11820;48.738;9.092;2023-02-22T01:16:35;96150.13;;;8.31;nan
23303;BME280;11820;48.738;9.092;2023-02-22T01:19:01;96153.56;;;8.38;nan
23303;BME280;11820;48.738;9.092;2023-02-22T01:21:26;96148.03;;;8.41;nan
23303;BME280;11820;48.738;9.092;2023-02-22T01:23:51;96149.50;;;8.50;nan
23303;BME280;11820;48.738;9.092;2023-02-22T01:26:17;96143.72;;;8.27;nan
23303;BME280;11820;48.738;9.092;2023-02-22T01:28:42;96141.09;;;8.06;nan
23303;BME280;11820;48.738;9.092;2023-02-22T01:31:07;96140.00;;;8.15;nan
23303;BME280;11820;48.738;9.092;2023-02-22T01:33:33;96141.88;;;8.21;nan
23303;BME280;11820;48.738;9.092;2023-02-22T01:35:58;96130.47;;;8.15;nan
23303;BME280;11820;48.738;9.092;2023-02-22T01:38:24;96130.84;;;8.27;nan
23303;BME280;11820;48.738;9.092;2023-02-22T01:40:50;96135.22;;;8.47;nan
23303;BME280;11820;48.738;9.092;2023-02-22T01:43:20;96127.66;;;8.46;nan
23303;BME280;11820;48.738;9.092;2023-02-22T01:51:20;96110.69;;;8.51;nan
23303;BME280;11820;48.738;9.092;2023-02-22T01:54:02;96107.00;;;8.39;nan
23303;BME280;11820;48.738;9.092;2023-02-22T01:56:31;96108.53;;;8.34;nan
23303;BME280;11820;48.738;9.092;2023-02-22T01:59:02;96101.72;;;8.26;nan
23303;BME280;11820;48.738;9.092;2023-02-22T02:01:30;96105.53;;;8.16;nan
23303;BME280;11820;48.738;9.092;2023-02-22T02:03:59;96098.81;;;8.15;nan
23303;BME280;11820;48.738;9.092;2023-02-22T02:06:28;96094.00;;;8.12;nan
23303;BME280;11820;48.738;9.092;2023-02-22T02:09:17;96091.06;;;8.15;nan
23303;BME280;11820;48.738;9.092;2023-02-22T02:11:44;96092.22;;;8.27;nan
23303;BME280;11820;48.738;9.092;2023-02-22T02:14:11;96083.63;;;8.41;nan
23303;BME280;11820;48.738;9.092;2023-02-22T02:16:42;96081.66;;;8.43;nan
23303;BME280;11820;48.738;9.092;2023-02-22T02:20:02;96082.78;;;8.34;nan
23303;BME280;11820;48.738;9.092;2023-02-22T02:28:07;96073.88;;;8.36;nan
23303;BME280;11820;48.738;9.092;2023-02-22T02:34:02;96068.66;;;8.51;nan
23303;BME280;11820;48.738;9.092;2023-02-22T02:36:34;96070.63;;;8.28;nan
23303;BME280;11820;48.738;9.092;2023-02-22T02:42:17;96067.22;;;8.06;nan
23303;BME280;11820;48.738;9.092;2023-02-22T02:44:50;96070.16;;;8.03;nan
23303;BME280;11820;48.738;9.092;2023-02-22T02:47:21;96062.25;;;8.05;nan
23303;BME280;11820;48.738;9.092;2023-02-22T02:50:19;96057.59;;;8.15;nan
23303;BME280;11820;48.738;9.092;2023-02-22T02:52:48;96053.91;;;8.03;nan
23303;BME280;11820;48.738;9.092;2023-02-22T02:55:13;96051.38;;;7.89;nan
23303;BME280;11820;48.738;9.092;2023-02-22T02:57:40;96044.81;;;8.21;nan
23303;BME280;11820;48.738;9.092;2023-02-22T03:00:07;96048.56;;;8.40;nan
23303;BME280;11820;48.738;9.092;2023-02-22T03:08:16;96042.78;;;8.38;nan
23303;BME280;11820;48.738;9.092;2023-02-22T03:11:05;96034.44;;;8.36;nan
23303;BME280;11820;48.738;9.092;2023-02-22T03:16:36;96035.06;;;8.38;nan
23303;BME280;11820;48.738;9.092;2023-02-22T03:27:05;96023.16;;;8.58;nan
23303;BME280;11820;48.738;9.092;2023-02-22T03:29:37;96016.72;;;8.47;nan
23303;BME280;11820;48.738;9.092;2023-02-22T03:32:07;96027.03;;;8.47;nan
23303;BME280;11820;48.738;9.092;2023-02-22T03:34:39;96016.50;;;8.49;nan
23303;BME280;11820;48.738;9.092;2023-02-22T03:37:12;96033.56;;;8.29;nan
23303;BME280;11820;48.738;9.092;2023-02-22T03:39:41;96018.50;;;8.26;nan
23303;BME280;11820;48.738;9.092;2023-02-22T03:42:21;96020.22;;;8.19;nan
23303;BME280;11820;48.738;9.092;2023-02-22T03:44:48;96016.41;;;8.15;nan
23303;BME280;11820;48.738;9.092;2023-02-22T03:47:22;96017.19;;;8.36;nan
23303;BME280;11820;48.738;9.092;2023-02-22T03:50:00;96021.81;;;8.41;nan
23303;BME280;11820;48.738;9.092;2023-02-22T03:52:32;96014.16;;;8.54;nan
23303;BME280;11820;48.738;9.092;2023-02-22T03:54:59;96019.97;;;8.56;nan
23303;BME280;11820;48.738;9.092;2023-02-22T03:57:32;96013.91;;;8.42;nan
23303;BME280;11820;48.738;9.092;2023-02-22T03:59:59;96013.94;;;8.49;nan
23303;BME280;11820;48.738;9.092;2023-02-22T04:02:24;96014.63;;;8.36;nan
23303;BME280;11820;48.738;9.092;2023-02-22T04:04:49;96017.28;;;8.22;nan
23303;BME280;11820;48.738;9.092;2023-02-22T04:07:15;96020.84;;;8.21;nan
23303;BME280;11820;48.738;9.092;2023-02-22T04:09:41;96018.63;;;8.18;nan
23303;BME280;11820;48.738;9.092;2023-02-22T04:12:07;96014.75;;;8.07;nan
23303;BME280;11820;48.738;9.092;2023-02-22T04:14:32;96012.41;;;7.92;nan
23303;BME280;11820;48.738;9.092;2023-02-22T04:16:58;96012.84;;;8.16;nan
23303;BME280;11820;48.738;9.092;2023-02-22T04:19:23;96021.97;;;8.39;nan
23303;BME280;11820;48.738;9.092;2023-02-22T04:21:48;96019.47;;;8.25;nan
23303;BME280;11820;48.738;9.092;2023-02-22T04:24:14;96005.50;;;8.13;nan
23303;BME280;11820;48.738;9.092;2023-02-22T04:26:39;96007.56;;;8.03;nan
23303;BME280;11820;48.738;9.092;2023-02-22T04:29:05;96003.41;;;7.81;nan
23303;BME280;11820;48.738;9.092;2023-02-22T04:31:31;96009.19;;;8.04;nan
23303;BME280;11820;48.738;9.092;2023-02-22T04:33:58;96012.38;;;8.06;nan
23303;BME280;11820;48.738;9.092;2023-02-22T04:36:23;96005.25;;;7.87;nan
23303;BME280;11820;48.738;9.092;2023-02-22T04:38:48;96007.81;;;7.87;nan
23303;BME280;11820;48.738;9.092;2023-02-22T04:41:16;96011.94;;;7.67;nan
23303;BME280;11820;48.738;9.092;2023-02-22T04:43:41;96009.91;;;7.63;nan
23303;BME280;11820;48.738;9.092;2023-02-22T04:46:06;96000.19;;;7.58;nan
23303;BME280;11820;48.738;9.092;2023-02-22T04:48:32;96011.19;;;7.52;nan
23303;BME280;11820;48.738;9.092;2023-02-22T04:50:58;95996.44;;;7.61;nan
23303;BME280;11820;48.738;9.092;2023-02-22T04:53:23;96005.56;;;7.63;nan
23303;BME280;11820;48.738;9.092;2023-02-22T04:55:48;95997.50;;;7.66;nan
23303;BME280;11820;48.738;9.092;2023-02-22T04:58:14;96000.78;;;7.60;nan
23303;BME280;11820;48.738;9.092;2023-02-22T05:00:39;96000.06;;;7.66;nan
23303;BME280;11820;48.738;9.092;2023-02-22T05:03:04;96000.34;;;7.92;nan
23303;BME280;11820;48.738;9.092;2023-02-22T05:05:30;96001.94;;;7.93;nan
23303;BME280;11820;48.738;9.092;2023-02-22T05:07:55;96007.28;;;7.77;nan
23303;BME280;11820;48.738;9.092;2023-02-22T05:10:20;96005.38;;;7.79;nan
23303;BME280;11820;48.738;9.092;2023-02-22T05:12:46;95995.78;;;7.94;nan
23303;BME280;11820;48.738;9.092;2023-02-22T05:15:16;96000.22;;;7.79;nan
23303;BME280;11820;48.738;9.092;2023-02-22T05:17:41;95999.13;;;7.88;nan
23303;BME280;11820;48.738;9.092;2023-02-22T05:20:09;95987.63;;;7.91;nan
23303;BME280;11820;48.738;9.092;2023-02-22T05:22:41;95995.19;;;7.92;nan
23303;BME280;11820;48.738;9.092;2023-02-22T05:25:06;95988.69;;;7.96;nan
23303;BME280;11820;48.738;9.092;2023-02-22T05:27:32;95992.44;;;7.94;nan
23303;BME280;11820;48.738;9.092;2023-02-22T05:29:57;95986.47;;;7.93;nan
23303;BME280;11820;48.738;9.092;2023-02-22T05:32:22;95980.88;;;7.90;nan
23303;BME280;11820;48.738;9.092;2023-02-22T05:34:47;95976.25;;;7.79;nan
23303;BME280;11820;48.738;9.092;2023-02-22T05:37:13;95972.84;;;7.78;nan
23303;BME280;11820;48.738;9.092;2023-02-22T05:39:38;95975.81;;;7.96;nan
23303;BME280;11820;48.738;9.092;2023-02-22T05:42:03;95974.28;;;8.01;nan
23303;BME280;11820;48.738;9.092;2023-02-22T05:44:29;95971.50;;;8.03;nan
23303;BME280;11820;48.738;9.092;2023-02-22T05:46:54;95970.78;;;8.09;nan
23303;BME280;11820;48.738;9.092;2023-02-22T05:49:20;95974.31;;;8.22;nan
23303;BME280;11820;48.738;9.092;2023-02-22T05:51:45;95969.44;;;8.34;nan
23303;BME280;11820;48.738;9.092;2023-02-22T05:54:10;95966.28;;;8.38;nan
23303;BME280;11820;48.738;9.092;2023-02-22T05:56:36;95963.16;;;8.43;nan
23303;BME280;11820;48.738;9.092;2023-02-22T05:59:01;95963.59;;;8.46;nan
23303;BME280;11820;48.738;9.092;2023-02-22T06:01:27;95963.09;;;8.30;nan
23303;BME280;11820;48.738;9.092;2023-02-22T06:03:52;95969.91;;;8.02;nan
23303;BME280;11820;48.738;9.092;2023-02-22T06:06:18;95967.25;;;8.10;nan
23303;BME280;11820;48.738;9.092;2023-02-22T06:08:45;95966.59;;;8.22;nan
23303;BME280;11820;48.738;9.092;2023-02-22T06:11:11;95964.91;;;8.15;nan
23303;BME280;11820;48.738;9.092;2023-02-22T06:13:37;95966.88;;;8.13;nan
23303;BME280;11820;48.738;9.092;2023-02-22T06:16:04;95968.03;;;8.10;nan
23303;BME280;11820;48.738;9.092;2023-02-22T06:18:29;95967.63;;;8.07;nan
23303;BME280;11820;48.738;9.092;2023-02-22T06:20:56;95964.75;;;7.96;nan
23303;BME280;11820;48.738;9.092;2023-02-22T06:23:21;95967.97;;;7.83;nan
23303;BME280;11820;48.738;9.092;2023-02-22T06:25:47;95967.47;;;7.94;nan
23303;BME280;11820;48.738;9.092;2023-02-22T06:28:12;95973.97;;;8.11;nan
23303;BME280;11820;48.738;9.092;2023-02-22T06:30:39;95969.06;;;7.95;nan
23303;BME280;11820;48.738;9.092;2023-02-22T06:33:08;95980.84;;;7.83;nan
23303;BME280;11820;48.738;9.092;2023-02-22T06:35:34;95976.28;;;7.64;nan
23303;BME280;11820;48.738;9.092;2023-02-22T06:37:59;95979.56;;;7.73;nan
23303;BME280;11820;48.738;9.092;2023-02-22T06:40:25;95981.66;;;7.48;nan
23303;BME280;11820;48.738;9.092;2023-02-22T06:42:54;95981.06;;;7.67;nan
23303;BME280;11820;48.738;9.092;2023-02-22T06:45:19;95982.97;;;7.59;nan
23303;BME280;11820;48.738;9.092;2023-02-22T06:47:45;95981.84;;;7.82;nan
23303;BME280;11820;48.738;9.092;2023-02-22T06:50:23;95980.19;;;7.96;nan
23303;BME280;11820;48.738;9.092;2023-02-22T06:52:48;95992.06;;;7.97;nan
23303;BME280;11820;48.738;9.092;2023-02-22T06:55:21;95987.28;;;7.94;nan
23303;BME280;11820;48.738;9.092;2023-02-22T06:57:47;95987.78;;;8.03;nan
23303;BME280;11820;48.738;9.092;2023-02-22T07:00:15;95990.41;;;8.10;nan
23303;BME280;11820;48.738;9.092;2023-02-22T07:02:42;95987.25;;;8.14;nan
23303;BME280;11820;48.738;9.092;2023-02-22T07:05:09;95995.78;;;8.15;nan
23303;BME280;11820;48.738;9.092;2023-02-22T07:07:35;95990.16;;;8.05;nan
23303;BME280;11820;48.738;9.092;2023-02-22T07:10:03;95993.00;;;8.10;nan
23303;BME280;11820;48.738;9.092;2023-02-22T07:12:28;95989.81;;;8.08;nan
23303;BME280;11820;48.738;9.092;2023-02-22T07:14:54;95987.41;;;8.27;nan
23303;BME280;11820;48.738;9.092;2023-02-22T07:17:20;95991.75;;;8.27;nan
23303;BME280;11820;48.738;9.092;2023-02-22T07:19:45;95997.19;;;8.32;nan
23303;BME280;11820;48.738;9.092;2023-02-22T07:22:11;95991.81;;;8.33;nan
23303;BME280;11820;48.738;9.092;2023-02-22T07:24:36;95986.63;;;8.54;nan
23303;BME280;11820;48.738;9.092;2023-02-22T07:27:01;96001.53;;;8.59;nan
23303;BME280;11820;48.738;9.092;2023-02-22T07:29:27;95992.63;;;8.61;nan
23303;BME280;11820;48.738;9.092;2023-02-22T07:31:53;95991.53;;;8.77;nan
23303;BME280;11820;48.738;9.092;2023-02-22T07:34:18;95996.28;;;8.73;nan
23303;BME280;11820;48.738;9.092;2023-02-22T07:36:44;95994.75;;;8.85;nan
23303;BME280;11820;48.738;9.092;2023-02-22T07:39:09;95994.00;;;8.85;nan
23303;BME280;11820;48.738;9.092;2023-02-22T07:41:35;95996.13;;;9.09;nan
23303;BME280;11820;48.738;9.092;2023-02-22T07:44:00;95992.88;;;9.00;nan
23303;BME280;11820;48.738;9.092;2023-02-22T07:46:25;96005.34;;;8.97;nan
23303;BME280;11820;48.738;9.092;2023-02-22T07:48:51;96001.25;;;8.75;nan
23303;BME280;11820;48.738;9.092;2023-02-22T07:51:16;96005.03;;;8.79;nan
23303;BME280;11820;48.738;9.092;2023-02-22T07:53:44;96003.41;;;8.44;nan
23303;BME280;11820;48.738;9.092;2023-02-22T07:56:10;96000.50;;;8.81;nan
23303;BME280;11820;48.738;9.092;2023-02-22T07:58:36;96002.50;;;8.85;nan
23303;BME280;11820;48.738;9.092;2023-02-22T08:01:01;96002.16;;;8.95;nan
23303;BME280;11820;48.738;9.092;2023-02-22T08:03:29;96001.75;;;9.25;nan
23303;BME280;11820;48.738;9.092;2023-02-22T08:05:56;96004.16;;;9.33;nan
23303;BME280;11820;48.738;9.092;2023-02-22T08:08:22;96008.56;;;9.46;nan
23303;BME280;11820;48.738;9.092;2023-02-22T08:10:49;96006.16;;;9.44;nan
23303;BME280;11820;48.738;9.092;2023-02-22T08:13:14;95999.69;;;9.61;nan
23303;BME280;11820;48.738;9.092;2023-02-22T08:15:41;96005.47;;;9.63;nan
23303;BME280;11820;48.738;9.092;2023-02-22T08:18:10;96003.97;;;9.94;nan
23303;BME280;11820;48.738;9.092;2023-02-22T08:20:37;95998.38;;;9.78;nan
23303;BME280;11820;48.738;9.092;2023-02-22T08:23:04;95997.59;;;9.90;nan
23303;BME280;11820;48.738;9.092;2023-02-22T08:25:29;96002.81;;;10.03;nan
23303;BME280;11820;48.738;9.092;2023-02-22T08:28:04;96001.22;;;10.02;nan
23303;BME280;11820;48.738;9.092;2023-02-22T08:30:30;96007.16;;;9.96;nan
23303;BME280;11820;48.738;9.092;2023-02-22T08:32:57;96007.16;;;9.96;nan
23303;BME280;11820;48.738;9.092;2023-02-22T08:35:23;96007.78;;;10.18;nan
23303;BME280;11820;48.738;9.092;2023-02-22T08:37:52;96004.63;;;10.09;nan
23303;BME280;11820;48.738;9.092;2023-02-22T08:40:21;96004.22;;;10.19;nan
23303;BME280;11820;48.738;9.092;2023-02-22T08:42:47;96005.66;;;10.34;nan
23303;BME280;11820;48.738;9.092;2023-02-22T08:45:13;96005.63;;;10.47;nan
23303;BME280;11820;48.738;9.092;2023-02-22T08:47:39;96002.03;;;10.68;nan
23303;BME280;11820;48.738;9.092;2023-02-22T08:50:05;95997.28;;;10.78;nan
23303;BME280;11820;48.738;9.092;2023-02-22T08:52:31;95995.47;;;10.91;nan
23303;BME280;11820;48.738;9.092;2023-02-22T08:54:56;95996.03;;;11.06;nan
23303;BME280;11820;48.738;9.092;2023-02-22T08:57:21;95996.00;;;11.26;nan
23303;BME280;11820;48.738;9.092;2023-02-22T08:59:47;95993.16;;;11.33;nan
23303;BME280;11820;48.738;9.092;2023-02-22T09:02:14;95993.09;;;11.53;nan
23303;BME280;11820;48.738;9.092;2023-02-22T09:04:40;95996.28;;;11.61;nan
23303;BME280;11820;48.738;9.092;2023-02-22T09:07:05;95995.25;;;11.69;nan
23303;BME280;11820;48.738;9.092;2023-02-22T09:09:30;95990.97;;;11.87;nan
23303;BME280;11820;48.738;9.092;2023-02-22T09:11:56;95983.94;;;11.94;nan
23303;BME280;11820;48.738;9.092;2023-02-22T09:14:21;95984.66;;;12.08;nan
23303;BME280;11820;48.738;9.092;2023-02-22T09:16:46;95984.06;;;12.06;nan
23303;BME280;11820;48.738;9.092;2023-02-22T09:19:12;95993.09;;;11.97;nan
23303;BME280;11820;48.738;9.092;2023-02-22T09:21:37;95992.19;;;12.16;nan
23303;BME280;11820;48.738;9.092;2023-02-22T09:24:04;95994.69;;;12.29;nan
23303;BME280;11820;48.738;9.092;2023-02-22T09:26:34;95993.19;;;12.15;nan
23303;BME280;11820;48.738;9.092;2023-02-22T09:29:04;95990.41;;;12.10;nan
23303;BME280;11820;48.738;9.092;2023-02-22T09:31:29;95987.59;;;12.18;nan
23303;BME280;11820;48.738;9.092;2023-02-22T09:33:54;95986.44;;;12.38;nan
23303;BME280;11820;48.738;9.092;2023-02-22T09:36:19;95984.22;;;12.42;nan
23303;BME280;11820;48.738;9.092;2023-02-22T09:38:45;95985.34;;;12.52;nan
23303;BME280;11820;48.738;9.092;2023-02-22T09:41:27;95982.44;;;12.67;nan
23303;BME280;11820;48.738;9.092;2023-02-22T09:46:41;95980.59;;;12.92;nan
23303;BME280;11820;48.738;9.092;2023-02-22T09:49:30;95978.59;;;12.94;nan
23303;BME280;11820;48.738;9.092;2023-02-22T09:52:04;95980.44;;;13.11;nan
23303;BME280;11820;48.738;9.092;2023-02-22T09:54:37;95974.84;;;13.07;nan
23303;BME280;11820;48.738;9.092;2023-02-22T09:57:06;95972.91;;;13.21;nan
23303;BME280;11820;48.738;9.092;2023-02-22T09:59:54;95971.03;;;13.46;nan
23303;BME280;11820;48.738;9.092;2023-02-22T10:02:35;95979.81;;;13.63;nan
23303;BME280;11820;48.738;9.092;2023-02-22T10:05:10;95973.03;;;13.80;nan
23303;BME280;11820;48.738;9.092;2023-02-22T10:07:47;95975.78;;;13.96;nan
23303;BME280;11820;48.738;9.092;2023-02-22T10:10:21;95973.47;;;13.88;nan
23303;BME280;11820;48.738;9.092;2023-02-22T10:12:58;95974.59;;;13.81;nan
23303;BME280;11820;48.738;9.092;2023-02-22T10:24:05;95964.97;;;14.52;nan
23303;BME280;11820;48.738;9.092;2023-02-22T10:26:39;95965.09;;;14.68;nan
23303;BME280;11820;48.738;9.092;2023-02-22T10:29:53;95962.28;;;14.81;nan
23303;BME280;11820;48.738;9.092;2023-02-22T10:31:56;95963.75;;;14.77;nan
23303;BME280;11820;48.738;9.092;2023-02-22T10:34:29;95957.63;;;15.29;nan
23303;BME280;11820;48.738;9.092;2023-02-22T10:37:14;95948.91;;;15.63;nan
23303;BME280;11820;48.738;9.092;2023-02-22T10:39:43;95952.53;;;17.00;nan
23303;BME280;11820;48.738;9.092;2023-02-22T10:42:09;95932.25;;;21.19;nan
23303;BME280;11820;48.738;9.092;2023-02-22T10:44:36;95939.16;;;20.85;nan
23303;BME280;11820;48.738;9.092;2023-02-22T10:47:04;95937.03;;;20.72;nan
23303;BME280;11820;48.738;9.092;2023-02-22T10:49:42;95914.44;;;24.20;nan
23303;BME280;11820;48.738;9.092;2023-02-22T10:52:14;95919.09;;;23.91;nan
23303;BME280;11820;48.738;9.092;2023-02-22T10:54:44;95924.03;;;21.40;nan
23303;BME280;11820;48.738;9.092;2023-02-22T10:57:10;95930.47;;;20.40;nan
23303;BME280;11820;48.738;9.092;2023-02-22T10:59:39;95928.00;;;21.33;nan
23303;BME280;11820;48.738;9.092;2023-02-22T11:02:29;95922.00;;;19.93;nan
23303;BME280;11820;48.738;9.092;2023-02-22T11:04:57;95924.41;;;20.04;nan
23303;BME280;11820;48.738;9.092;2023-02-22T11:07:34;95925.47;;;20.23;nan
23303;BME280;11820;48.738;9.092;2023-02-22T11:10:05;95930.72;;;20.68;nan
23303;BME280;11820;48.738;9.092;2023-02-22T11:12:36;95923.38;;;20.65;nan
23303;BME280;11820;48.738;9.092;2023-02-22T11:17:44;95923.31;;;20.00;nan
23303;BME280;11820;48.738;9.092;2023-02-22T11:20:36;95931.91;;;18.73;nan
23303;BME280;11820;48.738;9.092;2023-02-22T11:23:03;95915.84;;;19.06;nan
23303;BME280;11820;48.738;9.092;2023-02-22T11:25:33;95918.28;;;18.71;nan
23303;BME280;11820;48.738;9.092;2023-02-22T11:28:11;95913.78;;;19.60;nan
23303;BME280;11820;48.738;9.092;2023-02-22T11:30:39;95914.06;;;18.70;nan
23303;BME280;11820;48.738;9.092;2023-02-22T11:33:19;95909.75;;;18.96;nan
23303;BME280;11820;48.738;9.092;2023-02-22T11:35:57;95913.56;;;18.10;nan
23303;BME280;11820;48.738;9.092;2023-02-22T11:38:31;95911.75;;;17.20;nan
23303;BME280;11820;48.738;9.092;2023-02-22T11:41:19;95911.44;;;16.41;nan
23303;BME280;11820;48.738;9.092;2023-02-22T11:43:49;95911.41;;;16.25;nan
23303;BME280;11820;48.738;9.092;2023-02-22T11:46:20;95909.22;;;16.49;nan
23303;BME280;11820;48.738;9.092;2023-02-22T11:49:01;95890.56;;;21.51;nan
23303;BME280;11820;48.738;9.092;2023-02-22T11:57:08;95894.47;;;16.11;nan
23303;BME280;11820;48.738;9.092;2023-02-22T11:59:57;95893.22;;;15.97;nan
23303;BME280;11820;48.738;9.092;2023-02-22T12:13:41;95860.09;;;22.84;nan
23303;BME280;11820;48.738;9.092;2023-02-22T12:21:35;95866.59;;;20.89;nan
23303;BME280;11820;48.738;9.092;2023-02-22T12:24:06;95871.63;;;20.36;nan
23303;BME280;11820;48.738;9.092;2023-02-22T12:26:36;95868.81;;;19.31;nan
23303;BME280;11820;48.738;9.092;2023-02-22T12:31:41;95859.41;;;21.20;nan
23303;BME280;11820;48.738;9.092;2023-02-22T12:34:45;95856.31;;;21.56;nan
23303;BME280;11820;48.738;9.092;2023-02-22T12:37:19;95857.94;;;20.74;nan
23303;BME280;11820;48.738;9.092;2023-02-22T12:42:19;95858.25;;;20.17;nan
23303;BME280;11820;48.738;9.092;2023-02-22T12:44:52;95855.53;;;19.67;nan
23303;BME280;11820;48.738;9.092;2023-02-22T12:47:21;95852.91;;;19.63;nan
23303;BME280;11820;48.738;9.092;2023-02-22T12:50:01;95848.41;;;19.43;nan
23303;BME280;11820;48.738;9.092;2023-02-22T12:55:10;95856.78;;;18.84;nan
23303;BME280;11820;48.738;9.092;2023-02-22T12:57:55;95856.31;;;18.50;nan
23303;BME280;11820;48.738;9.092;2023-02-22T13:00:36;95865.38;;;18.79;nan
23303;BME280;11820;48.738;9.092;2023-02-22T13:03:28;95862.25;;;18.82;nan
23303;BME280;11820;48.738;9.092;2023-02-22T13:14:39;95852.56;;;18.83;nan
23303;BME280;11820;48.738;9.092;2023-02-22T13:20:22;95851.66;;;18.62;nan
23303;BME280;11820;48.738;9.092;2023-02-22T13:22:57;95849.31;;;17.98;nan
23303;BME280;11820;48.738;9.092;2023-02-22T13:25:34;95855.38;;;17.98;nan
23303;BME280;11820;48.738;9.092;2023-02-22T13:28:15;95854.41;;;17.78;nan
23303;BME280;11820;48.738;9.092;2023-02-22T13:49:57;95846.75;;;16.43;nan
23303;BME280;11820;48.738;9.092;2023-02-22T13:52:30;95851.97;;;16.10;nan
23303;BME280;11820;48.738;9.092;2023-02-22T13:55:04;95848.91;;;15.69;nan
23303;BME280;11820;48.738;9.092;2023-02-22T13:57:41;95847.66;;;15.71;nan
23303;BME280;11820;48.738;9.092;2023-02-22T14:02:59;95856.38;;;15.49;nan
23303;BME280;11820;48.738;9.092;2023-02-22T14:06:03;95853.78;;;15.49;nan
23303;BME280;11820;48.738;9.092;2023-02-22T14:10:59;95849.38;;;15.82;nan
23303;BME280;11820;48.738;9.092;2023-02-22T14:13:28;95850.03;;;15.73;nan
23303;BME280;11820;48.738;9.092;2023-02-22T14:18:22;95852.16;;;15.76;nan
23303;BME280;11820;48.738;9.092;2023-02-22T14:21:06;95848.91;;;15.41;nan
23303;BME280;11820;48.738;9.092;2023-02-22T14:23:35;95852.66;;;15.45;nan
23303;BME280;11820;48.738;9.092;2023-02-22T14:26:11;95850.13;;;15.22;nan
23303;BME280;11820;48.738;9.092;2023-02-22T14:31:26;95855.94;;;15.01;nan
23303;BME280;11820;48.738;9.092;2023-02-22T14:34:15;95845.03;;;15.15;nan
23303;BME280;11820;48.738;9.092;2023-02-22T14:39:31;95855.75;;;14.79;nan
23303;BME280;11820;48.738;9.092;2023-02-22T14:42:05;95844.19;;;14.87;nan
23303;BME280;11820;48.738;9.092;2023-02-22T14:44:39;95848.16;;;14.89;nan
23303;BME280;11820;48.738;9.092;2023-02-22T14:47:17;95851.44;;;14.85;nan
23303;BME280;11820;48.738;9.092;2023-02-22T14:49:48;95847.72;;;14.81;nan
23303;BME280;11820;48.738;9.092;2023-02-22T14:52:27;95848.94;;;14.90;nan
23303;BME280;11820;48.738;9.092;2023-02-22T14:55:15;95848.47;;;14.93;nan
23303;BME280;11820;48.738;9.092;2023-02-22T14:57:53;95845.94;;;14.81;nan
23303;BME280;11820;48.738;9.092;2023-02-22T15:00:25;95843.44;;;14.75;nan
23303;BME280;11820;48.738;9.092;2023-02-22T15:02:59;95846.97;;;14.69;nan
23303;BME280;11820;48.738;9.092;2023-02-22T15:05:34;95848.88;;;14.73;nan
23303;BME280;11820;48.738;9.092;2023-02-22T15:08:05;95848.31;;;14.49;nan
23303;BME280;11820;48.738;9.092;2023-02-22T15:10:45;95848.31;;;14.49;nan
23303;BME280;11820;48.738;9.092;2023-02-22T15:15:41;95836.00;;;14.56;nan
23303;BME280;11820;48.738;9.092;2023-02-22T15:20:54;95848.53;;;14.70;nan
23303;BME280;11820;48.738;9.092;2023-02-22T15:23:27;95842.34;;;14.48;nan
23303;BME280;11820;48.738;9.092;2023-02-22T15:25:57;95844.38;;;14.46;nan
23303;BME280;11820;48.738;9.092;2023-02-22T15:28:26;95845.50;;;14.62;nan
23303;BME280;11820;48.738;9.092;2023-02-22T15:31:13;95842.09;;;14.50;nan
23303;BME280;11820;48.738;9.092;2023-02-22T15:33:39;95839.63;;;14.43;nan
23303;BME280;11820;48.738;9.092;2023-02-22T15:36:10;95850.25;;;14.42;nan
23303;BME280;11820;48.738;9.092;2023-02-22T15:38:37;95849.34;;;14.25;nan
23303;BME280;11820;48.738;9.092;2023-02-22T15:41:05;95848.56;;;14.24;nan
23303;BME280;11820;48.738;9.092;2023-02-22T15:43:32;95845.91;;;14.01;nan
23303;BME280;11820;48.738;9.092;2023-02-22T15:45:59;95849.19;;;14.08;nan
23303;BME280;11820;48.738;9.092;2023-02-22T15:48:25;95843.78;;;14.10;nan
23303;BME280;11820;48.738;9.092;2023-02-22T15:53:36;95848.84;;;13.93;nan